createdAt,value
2018-02-21T00:00:10.217Z,-1.40
2018-02-21T00:02:37.644Z,-1.20
2018-02-21T00:05:05.876Z,-1.20
2018-02-21T00:07:33.296Z,-1.20
2018-02-21T00:10:00.729Z,-1.20
2018-02-21T00:12:28.179Z,-1.20
2018-02-21T00:14:55.613Z,-1.30
2018-02-21T00:17:23.040Z,-1.30
2018-02-21T00:19:50.472Z,-1.30
2018-02-21T00:22:17.899Z,-1.30
2018-02-21T00:24:45.335Z,-1.30
2018-02-21T00:27:12.775Z,-1.30
2018-02-21T00:29:40.976Z,-1.40
2018-02-21T00:32:08.424Z,-1.40
2018-02-21T00:34:35.843Z,-1.40
2018-02-21T00:37:03.280Z,-1.40
2018-02-21T00:39:30.708Z,-1.50
2018-02-21T00:41:58.136Z,-1.70
2018-02-21T00:44:26.341Z,-1.80
2018-02-21T00:46:53.800Z,-1.80
2018-02-21T00:49:21.252Z,-1.90
2018-02-21T00:51:48.680Z,-1.80
2018-02-21T00:54:16.120Z,-1.80
2018-02-21T00:56:43.557Z,-1.80
2018-02-21T00:59:11.004Z,-1.90
2018-02-21T01:01:38.443Z,-1.80
2018-02-21T01:04:06.997Z,-1.90
2018-02-21T01:06:34.423Z,-1.90
2018-02-21T01:09:01.853Z,-2.00
2018-02-21T01:11:29.297Z,-2.10
2018-02-21T01:13:56.735Z,-2.20
2018-02-21T01:16:24.177Z,-2.20
2018-02-21T01:18:51.606Z,-2.20
2018-02-21T01:21:19.812Z,-2.30
2018-02-21T01:23:47.249Z,-2.30
2018-02-21T01:26:14.692Z,-2.30
2018-02-21T01:28:42.144Z,-2.20
2018-02-21T01:31:09.596Z,-2.10
2018-02-21T01:33:37.027Z,-2.10
2018-02-21T01:36:04.470Z,-2.10
2018-02-21T01:38:31.905Z,-2.10
2018-02-21T01:40:59.352Z,-2.10
2018-02-21T01:43:26.796Z,-2.10
2018-02-21T01:45:54.220Z,-2.10
2018-02-21T01:48:21.657Z,-2.10
2018-02-21T01:50:52.036Z,-2.20
2018-02-21T01:53:20.228Z,-2.30
2018-02-21T01:55:47.673Z,-2.30
2018-02-21T01:58:15.111Z,-2.30
2018-02-21T02:00:42.639Z,-2.30
2018-02-21T02:03:10.059Z,-2.40
2018-02-21T02:05:38.278Z,-2.50
2018-02-21T02:08:05.711Z,-2.50
2018-02-21T02:10:33.133Z,-2.40
2018-02-21T02:13:00.564Z,-2.40
2018-02-21T02:15:28.003Z,-2.40
2018-02-21T02:17:56.211Z,-2.30
2018-02-21T02:20:23.673Z,-2.30
2018-02-21T02:22:51.119Z,-2.20
2018-02-21T02:25:19.334Z,-2.00
2018-02-21T02:27:46.784Z,-2.00
2018-02-21T02:30:14.246Z,-1.90
2018-02-21T02:32:41.675Z,-1.80
2018-02-21T02:35:09.106Z,-1.60
2018-02-21T02:37:36.549Z,-1.70
2018-02-21T02:40:03.981Z,-1.70
2018-02-21T02:42:31.436Z,-1.70
2018-02-21T02:44:58.872Z,-1.70
2018-02-21T02:47:26.307Z,-1.70
2018-02-21T02:49:53.746Z,-1.60
2018-02-21T02:52:21.193Z,-1.60
2018-02-21T02:54:48.632Z,-1.60
2018-02-21T02:57:16.073Z,-1.60
2018-02-21T02:59:43.509Z,-1.60
2018-02-21T03:02:10.950Z,-1.50
2018-02-21T03:04:38.391Z,-1.50
2018-02-21T03:07:05.839Z,-1.40
2018-02-21T03:09:33.273Z,-1.40
2018-02-21T03:12:00.707Z,-1.40
2018-02-21T03:14:28.148Z,-1.40
2018-02-21T03:16:55.598Z,-1.40
2018-02-21T03:19:23.016Z,-1.40
2018-02-21T03:21:50.475Z,-1.30
2018-02-21T03:24:17.908Z,-1.40
2018-02-21T03:26:45.349Z,-1.50
2018-02-21T03:29:12.787Z,-1.50
2018-02-21T03:31:40.408Z,-1.50
2018-02-21T03:34:08.608Z,-1.50
2018-02-21T03:36:36.062Z,-1.50
2018-02-21T03:39:03.511Z,-1.50
2018-02-21T03:41:30.961Z,-1.60
2018-02-21T03:43:58.392Z,-1.50
2018-02-21T03:46:25.815Z,-1.50
2018-02-21T03:48:53.270Z,-1.50
2018-02-21T03:51:20.700Z,-1.60
2018-02-21T03:53:48.159Z,-1.60
2018-02-21T03:56:15.588Z,-1.60
2018-02-21T03:58:43.019Z,-1.60
2018-02-21T04:01:10.459Z,-1.60
2018-02-21T04:03:37.900Z,-1.60
2018-02-21T04:06:05.352Z,-1.60
2018-02-21T04:08:32.789Z,-1.60
2018-02-21T04:11:00.229Z,-1.70
2018-02-21T04:13:27.672Z,-1.80
2018-02-21T04:15:55.112Z,-1.80
2018-02-21T04:18:22.559Z,-1.80
2018-02-21T04:20:49.992Z,-1.90
2018-02-21T04:23:17.528Z,-1.90
2018-02-21T04:25:45.706Z,-1.90
2018-02-21T04:28:13.148Z,-1.90
2018-02-21T04:30:40.604Z,-1.90
2018-02-21T04:33:08.040Z,-1.90
2018-02-21T04:35:35.456Z,-1.90
2018-02-21T04:38:02.906Z,-1.80
2018-02-21T04:40:30.344Z,-1.80
2018-02-21T04:42:57.791Z,-1.80
2018-02-21T04:45:25.248Z,-1.70
2018-02-21T04:47:52.700Z,-1.70
2018-02-21T04:50:20.135Z,-1.70
2018-02-21T04:52:47.568Z,-1.60
2018-02-21T04:55:15.836Z,-1.60
2018-02-21T04:57:49.007Z,-1.60
2018-02-21T05:00:16.845Z,-1.60
2018-02-21T05:02:44.280Z,-1.50
2018-02-21T05:05:11.761Z,-1.50
2018-02-21T05:07:39.192Z,-1.50
2018-02-21T05:10:06.634Z,-1.50
2018-02-21T05:12:34.052Z,-1.50
2018-02-21T05:15:01.484Z,-1.40
2018-02-21T05:17:28.916Z,-1.40
2018-02-21T05:19:56.357Z,-1.50
2018-02-21T05:22:23.803Z,-1.40
2018-02-21T05:24:51.251Z,-1.40
2018-02-21T05:27:18.688Z,-1.40
2018-02-21T05:29:46.128Z,-1.40
2018-02-21T05:32:13.555Z,-1.30
2018-02-21T05:34:41.766Z,-1.10
2018-02-21T05:37:09.202Z,-1.10
2018-02-21T05:39:36.627Z,-1.10
2018-02-21T05:42:04.080Z,-1.00
2018-02-21T05:44:31.500Z,-1.00
2018-02-21T05:46:58.984Z,-1.10
2018-02-21T05:49:27.215Z,-1.10
2018-02-21T05:51:54.652Z,-1.20
2018-02-21T05:54:22.108Z,-1.20
2018-02-21T05:56:49.524Z,-1.10
2018-02-21T05:59:16.964Z,-1.20
2018-02-21T06:01:44.404Z,-1.20
2018-02-21T06:04:11.852Z,-1.20
2018-02-21T06:06:39.308Z,-1.00
2018-02-21T06:09:06.744Z,-1.00
2018-02-21T06:11:34.186Z,-1.10
2018-02-21T06:14:01.615Z,-0.70
2018-02-21T06:16:29.044Z,-0.80
2018-02-21T06:18:57.245Z,-1.00
2018-02-21T06:21:24.697Z,-1.00
2018-02-21T06:23:52.136Z,-1.10
2018-02-21T06:26:19.561Z,-1.10
2018-02-21T06:28:47.016Z,-1.10
2018-02-21T06:31:14.440Z,-1.10
2018-02-21T06:33:41.880Z,-1.10
2018-02-21T06:36:09.336Z,-1.20
2018-02-21T06:38:36.777Z,-1.30
2018-02-21T06:41:04.213Z,-1.30
2018-02-21T06:43:31.639Z,-1.40
2018-02-21T06:45:59.061Z,-1.40
2018-02-21T06:48:26.516Z,-1.40
2018-02-21T06:50:53.968Z,-1.40
2018-02-21T06:53:21.399Z,-1.30
2018-02-21T06:55:48.826Z,-1.30
2018-02-21T06:58:16.252Z,-1.30
2018-02-21T07:00:44.451Z,-1.30
2018-02-21T07:03:11.876Z,-1.30
2018-02-21T07:05:39.300Z,-1.20
2018-02-21T07:08:07.507Z,-1.10
2018-02-21T07:10:34.936Z,-1.10
2018-02-21T07:13:02.389Z,-1.10
2018-02-21T07:15:29.876Z,-1.20
2018-02-21T07:17:57.263Z,-1.20
2018-02-21T07:20:24.724Z,-1.30
2018-02-21T07:22:52.156Z,-1.30
2018-02-21T07:25:19.595Z,-1.30
2018-02-21T07:27:47.025Z,-1.40
2018-02-21T07:30:14.472Z,-1.30
2018-02-21T07:32:41.908Z,-1.40
2018-02-21T07:35:09.347Z,-1.40
2018-02-21T07:37:36.779Z,-1.30
2018-02-21T07:40:04.209Z,-1.30
2018-02-21T07:42:32.415Z,-1.20
2018-02-21T07:44:59.852Z,-1.20
2018-02-21T07:47:27.272Z,-1.30
2018-02-21T07:49:54.696Z,-1.30
2018-02-21T07:52:22.123Z,-1.40
2018-02-21T07:54:50.312Z,-1.50
2018-02-21T07:57:17.756Z,-1.50
2018-02-21T07:59:45.196Z,-1.50
2018-02-21T08:02:12.623Z,-1.40
2018-02-21T08:04:40.061Z,-1.40
2018-02-21T08:07:07.504Z,-1.30
2018-02-21T08:09:35.717Z,-1.00
2018-02-21T08:12:03.143Z,-1.00
2018-02-21T08:14:30.581Z,-1.00
2018-02-21T08:16:58.008Z,-0.80
2018-02-21T08:19:25.448Z,-0.30
2018-02-21T08:21:52.880Z,-0.30
2018-02-21T08:24:20.320Z,-0.30
2018-02-21T08:26:47.752Z,-0.30
2018-02-21T08:29:15.187Z,-0.40
2018-02-21T08:31:43.380Z,-0.70
2018-02-21T08:34:10.817Z,-0.70
2018-02-21T08:36:38.297Z,-0.60
2018-02-21T08:39:05.672Z,-0.40
2018-02-21T08:41:33.110Z,-0.20
2018-02-21T08:44:01.305Z,-0.30
2018-02-21T08:46:28.744Z,-0.30
2018-02-21T08:48:56.172Z,-0.50
2018-02-21T08:51:23.611Z,-0.50
2018-02-21T08:53:51.049Z,-0.40
2018-02-21T08:56:18.516Z,-0.70
2018-02-21T08:58:45.970Z,-0.70
2018-02-21T09:01:13.400Z,-0.80
2018-02-21T09:03:40.847Z,-1.10
2018-02-21T09:06:08.285Z,-1.00
2018-02-21T09:08:35.711Z,-1.10
2018-02-21T09:11:03.151Z,-1.00
2018-02-21T09:13:30.576Z,-1.10
2018-02-21T09:15:58.004Z,-0.90
2018-02-21T09:18:26.203Z,-0.30
2018-02-21T09:20:53.639Z,-0.30
2018-02-21T09:23:21.089Z,-0.20
2018-02-21T09:25:48.503Z,-0.30
2018-02-21T09:28:15.940Z,-0.10
2018-02-21T09:30:43.374Z,0.20
2018-02-21T09:33:11.556Z,0.50
2018-02-21T09:35:38.992Z,0.50
2018-02-21T09:38:06.422Z,0.10
2018-02-21T09:40:34.620Z,0.20
2018-02-21T09:43:02.052Z,0.20
2018-02-21T09:45:29.480Z,0.00
2018-02-21T09:47:56.924Z,0.20
2018-02-21T09:50:24.364Z,0.50
2018-02-21T09:52:51.788Z,0.30
2018-02-21T09:55:19.228Z,0.00
2018-02-21T09:57:46.692Z,0.40
2018-02-21T10:00:14.127Z,0.40
2018-02-21T10:02:41.549Z,0.80
2018-02-21T10:05:09.752Z,0.90
2018-02-21T10:07:37.178Z,0.90
2018-02-21T10:10:04.618Z,1.20
2018-02-21T10:12:32.048Z,0.80
2018-02-21T10:14:59.476Z,1.00
2018-02-21T10:17:27.686Z,0.80
2018-02-21T10:19:55.103Z,0.80
2018-02-21T10:22:22.544Z,0.50
2018-02-21T10:24:49.983Z,0.80
2018-02-21T10:27:17.404Z,1.00
2018-02-21T10:29:44.832Z,1.40
2018-02-21T10:32:13.027Z,0.70
2018-02-21T10:34:40.451Z,0.60
2018-02-21T10:37:07.886Z,0.90
2018-02-21T10:39:36.084Z,1.40
2018-02-21T10:42:03.514Z,1.40
2018-02-21T10:44:30.927Z,1.70
2018-02-21T10:46:58.356Z,1.60
2018-02-21T10:49:26.572Z,1.00
2018-02-21T10:51:54.041Z,1.00
2018-02-21T10:54:21.458Z,0.90
2018-02-21T10:56:48.884Z,0.70
2018-02-21T10:59:16.329Z,0.50
2018-02-21T11:01:43.749Z,0.40
2018-02-21T11:04:11.176Z,0.40
2018-02-21T11:06:39.379Z,0.70
2018-02-21T11:09:06.808Z,0.60
2018-02-21T11:11:34.249Z,0.60
2018-02-21T11:14:01.664Z,0.60
2018-02-21T11:16:29.094Z,0.60
2018-02-21T11:18:57.297Z,1.00
2018-02-21T11:21:24.723Z,1.00
2018-02-21T11:23:52.144Z,1.50
2018-02-21T11:26:19.627Z,2.00
2018-02-21T11:28:47.865Z,2.60
2018-02-21T11:31:15.347Z,2.60
2018-02-21T11:33:42.752Z,2.40
2018-02-21T11:36:10.174Z,2.70
2018-02-21T11:38:37.629Z,2.20
2018-02-21T11:41:05.052Z,2.40
2018-02-21T11:43:33.227Z,3.00
2018-02-21T11:46:00.648Z,3.00
2018-02-21T11:48:28.844Z,3.60
2018-02-21T11:50:56.286Z,3.60
2018-02-21T11:53:23.696Z,3.60
2018-02-21T11:55:51.137Z,3.20
2018-02-21T11:58:19.328Z,4.50
2018-02-21T12:00:46.743Z,4.50
2018-02-21T12:03:14.172Z,4.10
2018-02-21T12:05:42.361Z,4.50
2018-02-21T12:08:09.785Z,4.50
2018-02-21T12:10:37.204Z,5.20
2018-02-21T12:13:05.425Z,4.70
2018-02-21T12:15:32.849Z,4.60
2018-02-21T12:18:00.281Z,4.40
2018-02-21T12:20:27.712Z,4.40
2018-02-21T12:22:55.136Z,4.40
2018-02-21T12:25:23.324Z,4.00
2018-02-21T12:27:50.768Z,4.00
2018-02-21T12:30:18.176Z,4.90
2018-02-21T12:32:47.796Z,5.50
2018-02-21T12:35:15.235Z,5.50
2018-02-21T12:37:42.704Z,6.70
2018-02-21T12:40:15.849Z,7.00
2018-02-21T12:42:43.267Z,7.10
2018-02-21T12:45:11.459Z,5.40
2018-02-21T12:47:38.884Z,5.40
2018-02-21T12:50:06.381Z,5.20
2018-02-21T12:52:33.750Z,6.40
2018-02-21T12:55:01.945Z,7.20
2018-02-21T12:57:29.363Z,7.20
2018-02-21T12:59:56.784Z,8.00
2018-02-21T13:02:24.977Z,7.50
2018-02-21T13:04:52.417Z,7.40
2018-02-21T13:07:19.839Z,5.90
2018-02-21T13:09:48.036Z,5.20
2018-02-21T13:12:15.467Z,5.10
2018-02-21T13:14:42.927Z,5.50
2018-02-21T13:17:10.369Z,6.80
2018-02-21T13:19:37.800Z,6.80
2018-02-21T13:22:05.224Z,7.60
2018-02-21T13:24:32.656Z,6.90
2018-02-21T13:27:00.080Z,7.00
2018-02-21T13:29:28.279Z,7.10
2018-02-21T13:31:55.710Z,7.10
2018-02-21T13:34:23.132Z,7.90
2018-02-21T13:36:51.323Z,6.80
2018-02-21T13:39:18.760Z,6.80
2018-02-21T13:41:46.198Z,6.60
2018-02-21T13:44:13.620Z,6.50
2018-02-21T13:46:41.803Z,5.80
2018-02-21T13:49:09.238Z,5.70
2018-02-21T13:51:36.672Z,5.90
2018-02-21T13:54:04.108Z,6.30
2018-02-21T13:56:31.548Z,6.30
2018-02-21T13:58:58.993Z,5.30
2018-02-21T14:01:26.403Z,5.70
2018-02-21T14:03:54.608Z,5.00
2018-02-21T14:06:22.028Z,5.00
2018-02-21T14:08:49.456Z,5.80
2018-02-21T14:11:17.647Z,6.10
2018-02-21T14:13:45.093Z,6.10
2018-02-21T14:16:12.512Z,5.20
2018-02-21T14:18:39.947Z,5.40
2018-02-21T14:21:08.120Z,5.90
2018-02-21T14:23:35.552Z,5.90
2018-02-21T14:26:02.971Z,5.70
2018-02-21T14:28:30.432Z,5.50
2018-02-21T14:30:58.623Z,5.00
2018-02-21T14:33:26.054Z,5.00
2018-02-21T14:35:53.500Z,4.80
2018-02-21T14:38:20.935Z,5.00
2018-02-21T14:40:48.361Z,5.80
2018-02-21T14:43:15.788Z,5.50
2018-02-21T14:45:43.204Z,5.20
2018-02-21T14:48:10.635Z,5.30
2018-02-21T14:50:38.056Z,5.00
2018-02-21T14:53:05.480Z,5.20
2018-02-21T14:55:32.908Z,5.10
2018-02-21T14:58:00.344Z,5.20
2018-02-21T15:00:29.255Z,5.30
2018-02-21T15:02:56.702Z,5.30
2018-02-21T15:05:24.132Z,4.90
2018-02-21T15:07:51.568Z,4.60
2018-02-21T15:10:19.008Z,4.60
2018-02-21T15:12:46.432Z,4.30
2018-02-21T15:15:13.875Z,4.10
2018-02-21T15:17:41.295Z,4.60
2018-02-21T15:20:08.741Z,4.50
2018-02-21T15:22:36.160Z,4.30
2018-02-21T15:25:03.596Z,4.90
2018-02-21T15:27:31.016Z,5.20
2018-02-21T15:29:58.456Z,4.80
2018-02-21T15:32:25.881Z,5.00
2018-02-21T15:34:53.308Z,4.80
2018-02-21T15:37:20.740Z,4.20
2018-02-21T15:39:48.957Z,4.70
2018-02-21T15:42:16.382Z,4.70
2018-02-21T15:44:43.808Z,4.50
2018-02-21T15:47:11.264Z,4.30
2018-02-21T15:49:38.656Z,4.40
2018-02-21T15:52:06.866Z,4.70
2018-02-21T15:54:34.302Z,4.70
2018-02-21T15:57:01.724Z,4.80
2018-02-21T15:59:29.152Z,4.40
2018-02-21T16:01:56.577Z,4.70
2018-02-21T16:04:24.775Z,5.20
2018-02-21T16:06:52.203Z,5.20
2018-02-21T16:09:19.616Z,4.70
2018-02-21T16:11:47.824Z,3.00
2018-02-21T16:14:15.261Z,3.00
2018-02-21T16:16:42.724Z,2.70
2018-02-21T16:19:10.153Z,2.50
2018-02-21T16:21:37.612Z,2.50
2018-02-21T16:24:05.037Z,2.30
2018-02-21T16:26:32.464Z,2.20
2018-02-21T16:28:59.901Z,2.20
2018-02-21T16:31:27.312Z,2.10
2018-02-21T16:33:55.513Z,1.90
2018-02-21T16:36:22.935Z,1.90
2018-02-21T16:38:50.381Z,1.80
2018-02-21T16:41:17.817Z,1.70
2018-02-21T16:43:45.257Z,1.60
2018-02-21T16:46:12.709Z,1.60
2018-02-21T16:48:40.132Z,1.50
2018-02-21T16:51:08.340Z,1.40
2018-02-21T16:53:35.759Z,1.40
2018-02-21T16:56:03.184Z,1.30
2018-02-21T16:58:30.616Z,1.30
2018-02-21T17:00:58.812Z,1.10
2018-02-21T17:03:26.235Z,1.10
2018-02-21T17:05:53.684Z,1.10
2018-02-21T17:08:21.095Z,1.00
2018-02-21T17:10:49.279Z,1.00
2018-02-21T17:13:16.772Z,1.00
2018-02-21T17:15:44.140Z,1.00
2018-02-21T17:18:12.415Z,0.90
2018-02-21T17:20:39.880Z,0.90
2018-02-21T17:23:08.037Z,0.90
2018-02-21T17:25:35.476Z,0.80
2018-02-21T17:28:02.896Z,0.80
2018-02-21T17:30:30.319Z,0.80
2018-02-21T17:32:58.516Z,0.80
2018-02-21T17:35:25.940Z,0.70
2018-02-21T17:37:53.369Z,0.80
2018-02-21T17:40:21.560Z,0.70
2018-02-21T17:42:48.992Z,0.80
2018-02-21T17:45:16.432Z,0.80
2018-02-21T17:47:43.840Z,0.80
2018-02-21T17:50:12.041Z,0.70
2018-02-21T17:52:39.472Z,0.70
2018-02-21T17:55:06.888Z,0.70
2018-02-21T17:57:35.088Z,0.60
2018-02-21T18:00:02.512Z,0.60
2018-02-21T18:02:29.931Z,0.60
2018-02-21T18:04:58.121Z,0.70
2018-02-21T18:07:25.548Z,0.70
2018-02-21T18:09:52.972Z,0.80
2018-02-21T18:12:21.166Z,0.60
2018-02-21T18:14:48.599Z,0.60
2018-02-21T18:17:16.012Z,0.60
2018-02-21T18:19:44.199Z,0.70
2018-02-21T18:22:11.639Z,0.70
2018-02-21T18:24:39.056Z,0.70
2018-02-21T18:27:07.264Z,0.60
2018-02-21T18:29:34.688Z,0.60
2018-02-21T18:32:02.133Z,0.50
2018-02-21T18:34:29.552Z,0.50
2018-02-21T18:36:56.980Z,0.40
2018-02-21T18:39:25.177Z,0.30
2018-02-21T18:41:52.612Z,0.30
2018-02-21T18:44:20.072Z,0.20
2018-02-21T18:46:47.516Z,0.10
2018-02-21T18:49:14.932Z,0.20
2018-02-21T18:51:42.372Z,0.30
2018-02-21T18:54:09.799Z,0.20
2018-02-21T18:56:37.989Z,0.10
2018-02-21T18:59:05.411Z,0.10
2018-02-21T19:01:32.854Z,0.10
2018-02-21T19:04:00.292Z,0.10
2018-02-21T19:06:27.715Z,0.10
2018-02-21T19:08:55.164Z,0.10
2018-02-21T19:11:23.355Z,0.00
2018-02-21T19:13:50.775Z,0.00
2018-02-21T19:16:18.204Z,0.00
2018-02-21T19:18:46.396Z,0.10
2018-02-21T19:21:13.820Z,0.10
2018-02-21T19:23:41.248Z,0.00
2018-02-21T19:26:08.672Z,0.00
2018-02-21T19:28:36.859Z,0.00
2018-02-21T19:31:04.292Z,0.00
2018-02-21T19:33:31.712Z,0.00
2018-02-21T19:35:59.940Z,-0.10
2018-02-21T19:38:27.369Z,-0.20
2018-02-21T19:40:54.809Z,-0.10
2018-02-21T19:43:22.244Z,-0.20
2018-02-21T19:45:49.672Z,-0.20
2018-02-21T19:48:17.108Z,-0.20
2018-02-21T19:50:44.552Z,-0.30
2018-02-21T19:53:11.997Z,-0.30
2018-02-21T19:55:39.448Z,-0.40
2018-02-21T19:58:06.884Z,-0.40
2018-02-21T20:00:34.319Z,-0.40
2018-02-21T20:03:01.760Z,-0.50
2018-02-21T20:05:29.206Z,-0.50
2018-02-21T20:07:56.656Z,-0.60
2018-02-21T20:10:24.088Z,-0.60
2018-02-21T20:12:51.568Z,-0.60
2018-02-21T20:15:18.990Z,-0.60
2018-02-21T20:17:46.432Z,-0.60
2018-02-21T20:20:13.860Z,-0.60
2018-02-21T20:22:41.292Z,-0.60
2018-02-21T20:25:08.727Z,-0.60
2018-02-21T20:27:36.160Z,-0.70
2018-02-21T20:30:04.356Z,-0.80
2018-02-21T20:32:31.780Z,-0.80
2018-02-21T20:34:59.216Z,-0.70
2018-02-21T20:37:26.661Z,-0.70
2018-02-21T20:39:54.093Z,-0.80
2018-02-21T20:42:21.584Z,-0.80
2018-02-21T20:44:49.036Z,-0.80
2018-02-21T20:47:16.482Z,-0.80
2018-02-21T20:49:43.907Z,-0.80
2018-02-21T20:52:11.345Z,-0.90
2018-02-21T20:54:38.769Z,-0.90
2018-02-21T20:57:06.209Z,-1.00
2018-02-21T20:59:33.641Z,-1.00
2018-02-21T21:02:01.067Z,-1.00
2018-02-21T21:04:28.507Z,-1.00
2018-02-21T21:06:56.840Z,-1.10
2018-02-21T21:09:24.260Z,-1.10
2018-02-21T21:11:51.744Z,-1.10
2018-02-21T21:14:19.134Z,-1.20
2018-02-21T21:16:46.590Z,-1.10
2018-02-21T21:19:14.038Z,-1.10
2018-02-21T21:21:41.479Z,-1.10
2018-02-21T21:24:08.903Z,-1.10
2018-02-21T21:26:36.355Z,-1.20
2018-02-21T21:29:03.783Z,-1.20
2018-02-21T21:31:31.247Z,-1.30
2018-02-21T21:33:58.675Z,-1.30
2018-02-21T21:36:26.099Z,-1.40
2018-02-21T21:38:53.550Z,-1.40
2018-02-21T21:41:20.987Z,-1.40
2018-02-21T21:43:48.444Z,-1.40
2018-02-21T21:46:15.868Z,-1.40
2018-02-21T21:48:43.300Z,-1.50
2018-02-21T21:51:10.748Z,-1.50
2018-02-21T21:53:38.189Z,-1.50
2018-02-21T21:56:05.640Z,-1.50
2018-02-21T21:58:33.068Z,-1.50
2018-02-21T22:01:00.505Z,-1.50
2018-02-21T22:03:27.939Z,-1.50
2018-02-21T22:05:55.415Z,-1.60
2018-02-21T22:08:22.945Z,-1.60
2018-02-21T22:10:50.392Z,-1.60
2018-02-21T22:13:17.832Z,-1.60
2018-02-21T22:15:45.284Z,-1.60
2018-02-21T22:18:12.711Z,-1.70
2018-02-21T22:20:40.145Z,-1.70
2018-02-21T22:23:07.564Z,-1.70
2018-02-21T22:25:35.020Z,-1.70
2018-02-21T22:28:02.448Z,-1.70
2018-02-21T22:30:29.931Z,-1.70
2018-02-21T22:32:57.383Z,-1.80
2018-02-21T22:35:24.819Z,-1.80
2018-02-21T22:37:52.253Z,-1.80
2018-02-21T22:40:19.683Z,-1.80
2018-02-21T22:42:47.123Z,-1.80
2018-02-21T22:45:14.584Z,-1.90
2018-02-21T22:47:42.011Z,-1.90
2018-02-21T22:50:09.435Z,-1.90
2018-02-21T22:52:36.882Z,-2.00
2018-02-21T22:55:04.324Z,-2.00
2018-02-21T22:57:31.763Z,-2.00
2018-02-21T22:59:59.204Z,-2.00
2018-02-21T23:02:26.649Z,-2.00
2018-02-21T23:04:54.084Z,-2.00
2018-02-21T23:07:21.525Z,-2.10
2018-02-21T23:09:48.963Z,-2.10
2018-02-21T23:12:16.401Z,-2.10
2018-02-21T23:14:43.861Z,-2.00
2018-02-21T23:17:11.288Z,-2.00
2018-02-21T23:19:38.722Z,-2.00
2018-02-21T23:22:06.172Z,-2.00
2018-02-21T23:24:33.630Z,-2.00
2018-02-21T23:27:01.068Z,-2.10
2018-02-21T23:29:28.524Z,-2.10
2018-02-21T23:31:55.939Z,-2.10
2018-02-21T23:34:23.375Z,-2.10
2018-02-21T23:36:50.820Z,-2.10
2018-02-21T23:39:18.268Z,-2.10
2018-02-21T23:41:45.720Z,-2.10
2018-02-21T23:44:13.156Z,-2.10
2018-02-21T23:46:40.585Z,-2.20
2018-02-21T23:49:08.018Z,-2.20
2018-02-21T23:51:35.455Z,-2.30
2018-02-21T23:54:02.908Z,-2.20
2018-02-21T23:56:30.332Z,-2.20
2018-02-21T23:58:58.548Z,-2.30
